createdAt,value
2023-02-22T00:01:35.458Z,45.39
2023-02-22T00:04:39.610Z,45.38
2023-02-22T00:07:42.428Z,45.42
2023-02-22T00:10:45.044Z,45.41
2023-02-22T00:13:47.474Z,45.39
2023-02-22T00:16:50.533Z,45.41
2023-02-22T00:19:52.674Z,45.38
2023-02-22T00:22:54.962Z,45.39
2023-02-22T00:25:59.002Z,45.40
2023-02-22T00:29:01.405Z,45.42
2023-02-22T00:32:04.003Z,45.45
2023-02-22T00:35:08.239Z,45.41
2023-02-22T00:38:10.239Z,45.41
2023-02-22T00:41:12.749Z,45.44
2023-02-22T00:44:14.867Z,45.43
2023-02-22T00:47:16.880Z,45.42
2023-02-22T00:50:19.232Z,45.41
2023-02-22T00:53:22.904Z,45.45
2023-02-22T00:56:25.204Z,45.42
2023-02-22T00:59:27.244Z,45.44
2023-02-22T01:02:29.349Z,45.41
2023-02-22T01:05:33.165Z,45.41
2023-02-22T01:08:35.416Z,45.41
2023-02-22T01:11:37.432Z,45.42
2023-02-22T01:14:40.067Z,45.48
2023-02-22T01:17:43.730Z,45.45
2023-02-22T01:20:47.849Z,45.47
2023-02-22T01:23:49.909Z,45.48
2023-02-22T01:26:52.888Z,45.48
2023-02-22T01:29:54.915Z,45.51
2023-02-22T01:32:57.087Z,45.48
2023-02-22T01:35:59.985Z,45.51
2023-02-22T01:39:02.205Z,45.52
2023-02-22T01:42:04.352Z,45.54
2023-02-22T01:45:34.418Z,45.54
2023-02-22T01:48:56.104Z,45.54
2023-02-22T01:52:00.969Z,45.59
2023-02-22T01:55:03.094Z,45.55
2023-02-22T01:58:06.234Z,45.52
2023-02-22T02:01:09.180Z,45.50
2023-02-22T02:04:25.385Z,45.54
2023-02-22T02:07:29.558Z,45.59
2023-02-22T02:10:32.482Z,45.57
2023-02-22T02:13:34.858Z,45.65
2023-02-22T02:16:49.417Z,45.68
2023-02-22T02:20:19.527Z,45.68
2023-02-22T02:23:52.305Z,45.64
2023-02-22T02:27:14.555Z,45.64
2023-02-22T02:30:47.264Z,45.67
2023-02-22T02:34:02.665Z,45.69
2023-02-22T02:37:12.304Z,45.66
2023-02-22T02:40:37.396Z,45.69
2023-02-22T02:43:58.016Z,45.67
2023-02-22T02:47:15.046Z,45.66
2023-02-22T02:50:25.726Z,45.63
2023-02-22T02:53:40.360Z,45.63
2023-02-22T02:56:43.550Z,45.60
2023-02-22T02:59:46.398Z,45.57
2023-02-22T03:03:12.084Z,45.57
2023-02-22T03:06:29.339Z,45.54
2023-02-22T03:09:45.865Z,45.54
2023-02-22T03:13:13.619Z,45.54
2023-02-22T03:16:27.995Z,45.50
2023-02-22T03:19:38.418Z,45.48
2023-02-22T03:22:51.387Z,45.51
2023-02-22T03:26:11.966Z,45.47
2023-02-22T03:29:17.800Z,45.49
2023-02-22T03:32:27.984Z,45.41
2023-02-22T03:35:34.446Z,45.46
2023-02-22T03:38:39.951Z,45.44
2023-02-22T03:41:49.170Z,45.38
2023-02-22T03:44:53.262Z,45.43
2023-02-22T03:48:10.175Z,45.41
2023-02-22T03:51:17.139Z,45.37
2023-02-22T03:54:19.468Z,45.38
2023-02-22T03:57:26.728Z,45.35
2023-02-22T04:00:31.800Z,45.28
2023-02-22T04:03:33.887Z,45.28
2023-02-22T04:06:35.900Z,45.19
2023-02-22T04:09:38.295Z,45.18
2023-02-22T04:12:40.488Z,45.08
2023-02-22T04:15:42.906Z,45.11
2023-02-22T04:18:45.027Z,45.09
2023-02-22T04:21:47.179Z,45.12
2023-02-22T04:24:49.442Z,45.16
2023-02-22T04:27:52.391Z,45.18
2023-02-22T04:30:54.435Z,45.21
2023-02-22T04:33:56.505Z,45.28
2023-02-22T04:36:58.817Z,45.25
2023-02-22T04:40:02.364Z,45.32
2023-02-22T04:43:04.464Z,45.30
2023-02-22T04:46:06.576Z,45.30
2023-02-22T04:49:08.660Z,45.27
2023-02-22T04:52:10.705Z,44.98
2023-02-22T04:55:12.756Z,44.42
2023-02-22T04:58:14.773Z,44.15
2023-02-22T05:01:17.280Z,44.16
2023-02-22T05:04:19.496Z,44.17
2023-02-22T05:07:21.645Z,44.29
2023-02-22T05:10:24.746Z,44.48
2023-02-22T05:13:26.932Z,44.58
2023-02-22T05:16:29.024Z,44.65
2023-02-22T05:19:31.150Z,44.73
2023-02-22T05:22:33.226Z,44.74
2023-02-22T05:25:35.458Z,44.71
2023-02-22T05:28:37.537Z,44.65
2023-02-22T05:31:41.759Z,44.73
2023-02-22T05:34:43.889Z,44.80
2023-02-22T05:37:46.247Z,44.79
2023-02-22T05:40:48.518Z,44.77
2023-02-22T05:43:50.650Z,44.66
2023-02-22T05:46:52.690Z,44.56
2023-02-22T05:49:54.729Z,44.47
2023-02-22T05:52:57.088Z,44.47
2023-02-22T05:55:59.162Z,44.49
2023-02-22T05:59:01.209Z,44.48
2023-02-22T06:02:03.313Z,44.45
2023-02-22T06:05:05.703Z,44.35
2023-02-22T06:08:09.013Z,44.20
2023-02-22T06:11:12.353Z,44.18
2023-02-22T06:14:14.356Z,44.19
2023-02-22T06:17:16.677Z,44.26
2023-02-22T06:20:22.520Z,44.23
2023-02-22T06:23:25.562Z,44.12
2023-02-22T06:26:27.545Z,43.99
2023-02-22T06:29:29.862Z,43.98
2023-02-22T06:32:32.105Z,44.02
2023-02-22T06:35:34.157Z,44.07
2023-02-22T06:38:36.133Z,44.16
2023-02-22T06:41:39.680Z,43.96
2023-02-22T06:44:41.767Z,43.90
2023-02-22T06:47:43.780Z,43.53
2023-02-22T06:50:45.793Z,42.47
2023-02-22T06:53:47.838Z,42.46
2023-02-22T06:56:50.098Z,42.83
2023-02-22T06:59:52.126Z,42.97
2023-02-22T07:02:54.841Z,42.95
2023-02-22T07:05:56.878Z,42.91
2023-02-22T07:08:58.929Z,42.90
2023-02-22T07:12:01.048Z,43.04
2023-02-22T07:15:03.128Z,43.13
2023-02-22T07:18:05.692Z,43.22
2023-02-22T07:21:07.899Z,43.25
2023-02-22T07:24:09.938Z,43.33
2023-02-22T07:27:11.923Z,43.25
2023-02-22T07:30:33.967Z,43.39
2023-02-22T07:33:36.102Z,43.67
2023-02-22T07:36:38.105Z,43.93
2023-02-22T07:39:42.129Z,44.43
2023-02-22T07:43:01.448Z,44.47
2023-02-22T07:46:03.766Z,44.45
2023-02-22T07:49:05.877Z,44.58
2023-02-22T07:52:07.919Z,44.42
2023-02-22T07:55:09.952Z,44.54
2023-02-22T07:58:15.671Z,44.64
2023-02-22T08:01:18.004Z,44.66
2023-02-22T08:04:20.217Z,44.76
2023-02-22T08:07:22.209Z,44.69
2023-02-22T08:10:25.642Z,44.59
2023-02-22T08:13:27.687Z,44.61
2023-02-22T08:16:29.749Z,44.60
2023-02-22T08:19:31.889Z,44.33
2023-02-22T08:22:33.934Z,44.32
2023-02-22T08:25:36.404Z,44.53
2023-02-22T08:28:38.398Z,44.61
2023-02-22T08:31:40.887Z,44.62
2023-02-22T08:34:43.717Z,44.51
2023-02-22T08:37:54.465Z,44.54
2023-02-22T08:40:57.191Z,44.73
2023-02-22T08:44:01.224Z,44.83
2023-02-22T08:47:03.353Z,44.76
2023-02-22T08:50:06.284Z,45.06
2023-02-22T08:53:09.989Z,45.12
2023-02-22T08:56:12.346Z,45.05
2023-02-22T08:59:14.849Z,45.01
2023-02-22T09:02:20.297Z,44.99
2023-02-22T09:05:22.962Z,45.03
2023-02-22T09:08:25.174Z,44.93
2023-02-22T09:11:27.247Z,45.19
2023-02-22T09:14:29.290Z,45.12
2023-02-22T09:17:31.374Z,45.22
2023-02-22T09:20:35.798Z,45.24
2023-02-22T09:23:37.901Z,45.28
2023-02-22T09:26:39.996Z,45.43
2023-02-22T09:29:42.120Z,45.42
2023-02-22T09:32:44.205Z,45.70
2023-02-22T09:35:49.705Z,45.45
2023-02-22T09:38:52.259Z,45.93
2023-02-22T09:42:14.125Z,46.05
2023-02-22T09:45:27.216Z,46.37
2023-02-22T09:48:33.865Z,46.26
2023-02-22T09:51:52.534Z,46.73
2023-02-22T09:55:20.291Z,47.24
2023-02-22T09:58:33.511Z,47.52
2023-02-22T10:01:43.989Z,47.40
2023-02-22T10:05:08.443Z,47.25
2023-02-22T10:08:18.841Z,47.22
2023-02-22T10:11:37.697Z,47.00
2023-02-22T10:15:08.698Z,46.86
2023-02-22T10:18:33.026Z,46.81
2023-02-22T10:21:51.741Z,47.50
2023-02-22T10:24:59.963Z,47.54
2023-02-22T10:28:13.248Z,47.05
2023-02-22T10:31:26.240Z,46.91
2023-02-22T10:34:40.613Z,46.73
2023-02-22T10:37:42.667Z,46.56
2023-02-22T10:40:50.123Z,46.25
2023-02-22T10:43:52.148Z,45.99
2023-02-22T10:46:54.343Z,45.99
2023-02-22T10:50:00.539Z,45.90
2023-02-22T10:53:02.829Z,45.91
2023-02-22T10:56:18.852Z,45.90
2023-02-22T10:59:37.633Z,45.77
2023-02-22T11:02:49.844Z,45.66
2023-02-22T11:05:52.437Z,45.69
2023-02-22T11:09:08.502Z,45.61
2023-02-22T11:12:17.025Z,45.47
2023-02-22T11:15:26.050Z,45.38
2023-02-22T11:18:34.890Z,45.20
2023-02-22T11:21:37.187Z,45.12
2023-02-22T11:24:57.345Z,44.99
2023-02-22T11:28:12.827Z,44.97
2023-02-22T11:31:18.015Z,44.93
2023-02-22T11:34:32.511Z,44.88
2023-02-22T11:37:36.655Z,44.85
2023-02-22T11:40:40.055Z,44.95
2023-02-22T11:43:43.801Z,44.87
2023-02-22T11:46:45.885Z,44.82
2023-02-22T11:49:48.961Z,44.80
2023-02-22T11:53:17.643Z,44.83
2023-02-22T11:56:37.819Z,44.83
2023-02-22T12:00:24.305Z,44.91
2023-02-22T12:03:45.692Z,44.70
2023-02-22T12:07:05.446Z,44.92
2023-02-22T12:10:34.886Z,45.07
2023-02-22T12:14:09.424Z,45.06
2023-02-22T12:17:20.534Z,45.04
2023-02-22T12:20:42.354Z,45.19
2023-02-22T12:23:58.217Z,45.09
2023-02-22T12:27:22.247Z,45.45
2023-02-22T12:30:34.112Z,45.16
2023-02-22T12:33:49.671Z,45.20
2023-02-22T12:36:56.545Z,45.22
2023-02-22T12:40:24.677Z,45.21
2023-02-22T12:43:32.487Z,45.35
2023-02-22T12:46:53.265Z,45.28
2023-02-22T12:50:05.632Z,45.25
2023-02-22T12:53:35.255Z,45.24
2023-02-22T12:56:46.331Z,45.35
2023-02-22T13:00:23.163Z,45.29
2023-02-22T13:03:39.504Z,45.29
2023-02-22T13:07:04.064Z,45.39
2023-02-22T13:10:42.554Z,45.41
2023-02-22T13:13:56.455Z,45.36
2023-02-22T13:17:21.362Z,45.19
2023-02-22T13:20:26.961Z,45.03
2023-02-22T13:24:05.801Z,44.96
2023-02-22T13:27:27.062Z,44.61
2023-02-22T13:30:41.577Z,44.53
2023-02-22T13:34:02.834Z,44.33
2023-02-22T13:37:17.742Z,44.29
2023-02-22T13:40:52.979Z,44.25
2023-02-22T13:44:10.886Z,44.60
2023-02-22T13:47:21.780Z,45.20
2023-02-22T13:50:48.659Z,45.93
2023-02-22T13:53:56.050Z,46.29
2023-02-22T13:56:58.425Z,46.60
2023-02-22T14:00:15.764Z,46.84
2023-02-22T14:03:35.958Z,46.57
2023-02-22T14:06:41.624Z,46.43
2023-02-22T14:09:50.704Z,46.51
2023-02-22T14:12:52.865Z,46.51
2023-02-22T14:16:00.906Z,46.55
2023-02-22T14:19:22.916Z,46.51
2023-02-22T14:22:28.894Z,46.47
2023-02-22T14:25:49.806Z,46.45
2023-02-22T14:28:58.914Z,46.22
2023-02-22T14:32:06.304Z,46.15
2023-02-22T14:35:26.393Z,46.19
2023-02-22T14:38:30.617Z,47.21
2023-02-22T14:41:33.449Z,47.03
2023-02-22T14:44:55.511Z,46.86
2023-02-22T14:48:20.202Z,46.80
2023-02-22T14:51:26.909Z,46.92
2023-02-22T14:54:47.869Z,47.18
2023-02-22T14:58:13.211Z,47.34
2023-02-22T15:01:27.270Z,47.34
2023-02-22T15:04:33.289Z,47.25
2023-02-22T15:07:35.762Z,47.16
2023-02-22T15:10:42.907Z,46.92
2023-02-22T15:13:54.039Z,47.34
2023-02-22T15:17:00.374Z,46.91
2023-02-22T15:20:10.059Z,46.83
2023-02-22T15:23:12.117Z,46.62
2023-02-22T15:26:20.694Z,46.58
2023-02-22T15:29:35.443Z,46.51
2023-02-22T15:32:53.465Z,46.51
2023-02-22T15:36:02.496Z,46.38
2023-02-22T15:39:08.789Z,46.31
2023-02-22T15:42:22.970Z,46.17
2023-02-22T15:45:26.090Z,46.54
2023-02-22T15:48:31.737Z,46.77
2023-02-22T15:51:35.453Z,47.24
2023-02-22T15:54:45.923Z,47.51
2023-02-22T15:57:48.101Z,47.86
2023-02-22T16:01:11.015Z,48.57
2023-02-22T16:04:22.885Z,48.23
2023-02-22T16:07:25.242Z,48.38
2023-02-22T16:10:35.171Z,48.32
2023-02-22T16:13:37.214Z,48.41
2023-02-22T16:16:43.277Z,48.38
2023-02-22T16:19:45.479Z,48.29
2023-02-22T16:22:52.091Z,48.08
2023-02-22T16:26:18.899Z,48.37
2023-02-22T16:29:26.577Z,48.72
2023-02-22T16:32:29.077Z,48.82
2023-02-22T16:35:32.514Z,48.94
2023-02-22T16:38:38.247Z,48.80
2023-02-22T16:41:40.294Z,48.95
2023-02-22T16:44:42.392Z,49.08
2023-02-22T16:47:45.198Z,49.18
2023-02-22T16:50:49.645Z,49.22
2023-02-22T16:53:56.924Z,49.21
2023-02-22T16:57:01.931Z,49.37
2023-02-22T17:00:07.933Z,49.60
2023-02-22T17:03:15.407Z,49.81
2023-02-22T17:06:17.672Z,49.60
2023-02-22T17:09:20.231Z,49.68
2023-02-22T17:12:22.283Z,49.78
2023-02-22T17:15:29.589Z,49.89
2023-02-22T17:18:34.074Z,49.88
2023-02-22T17:21:36.247Z,49.85
2023-02-22T17:24:39.183Z,49.70
2023-02-22T17:27:41.220Z,49.64
2023-02-22T17:30:48.816Z,49.66
2023-02-22T17:33:51.521Z,49.62
2023-02-22T17:36:54.106Z,49.49
2023-02-22T17:39:56.220Z,49.57
2023-02-22T17:42:58.248Z,49.63
2023-02-22T17:46:00.329Z,49.56
2023-02-22T17:49:03.231Z,49.58
2023-02-22T17:52:06.286Z,49.57
2023-02-22T17:55:09.342Z,49.69
2023-02-22T17:58:15.237Z,49.34
2023-02-22T18:01:26.856Z,49.57
2023-02-22T18:04:28.886Z,49.47
2023-02-22T18:07:31.844Z,49.63
2023-02-22T18:10:34.638Z,49.68
2023-02-22T18:13:36.654Z,49.54
2023-02-22T18:17:23.900Z,49.24
2023-02-22T18:20:41.090Z,48.95
2023-02-22T18:23:48.247Z,48.73
2023-02-22T18:26:58.119Z,48.52
2023-02-22T18:30:08.880Z,48.48
2023-02-22T18:33:14.169Z,48.42
2023-02-22T18:36:29.215Z,48.28
2023-02-22T18:39:33.873Z,48.20
2023-02-22T18:42:49.925Z,48.17
2023-02-22T18:46:05.374Z,48.07
2023-02-22T18:49:20.733Z,48.05
2023-02-22T18:52:48.355Z,48.07
2023-02-22T18:59:55.271Z,47.96
2023-02-22T19:02:58.822Z,48.00
2023-02-22T19:06:10.764Z,47.99
2023-02-22T19:09:16.016Z,48.01
2023-02-22T19:12:20.370Z,48.02
2023-02-22T19:15:25.981Z,48.05
2023-02-22T19:18:28.223Z,48.05
2023-02-22T19:21:52.469Z,48.02
2023-02-22T19:24:57.984Z,48.05
2023-02-22T19:28:03.699Z,48.02
2023-02-22T19:31:43.007Z,48.07
2023-02-22T19:35:08.020Z,48.05
2023-02-22T19:38:10.732Z,48.05
2023-02-22T19:44:43.712Z,48.02
2023-02-22T19:47:57.975Z,48.02
2023-02-22T19:51:11.738Z,48.03
2023-02-22T19:54:48.137Z,48.01
2023-02-22T19:57:55.394Z,47.99
2023-02-22T20:00:57.671Z,47.96
2023-02-22T20:07:35.318Z,47.96
2023-02-22T20:10:45.686Z,47.93
2023-02-22T20:14:06.761Z,47.94
2023-02-22T20:17:14.992Z,47.92
2023-02-22T20:20:41.627Z,47.93
2023-02-22T20:23:46.977Z,47.88
2023-02-22T20:27:22.600Z,47.89
2023-02-22T20:30:23.152Z,47.89
2023-02-22T20:33:32.029Z,47.89
2023-02-22T20:37:13.649Z,47.86
2023-02-22T20:40:18.895Z,47.89
2023-02-22T20:43:21.234Z,47.87
2023-02-22T20:46:25.655Z,47.82
2023-02-22T20:49:31.391Z,47.85
2023-02-22T20:52:33.552Z,47.85
2023-02-22T20:55:36.712Z,47.83
2023-02-22T20:58:38.816Z,47.79
2023-02-22T21:01:44.706Z,47.84
2023-02-22T21:04:46.874Z,47.84
2023-02-22T21:07:51.761Z,47.83
2023-02-22T21:10:53.886Z,47.84
2023-02-22T21:14:08.363Z,47.79
2023-02-22T21:17:16.021Z,47.79
2023-02-22T21:20:21.794Z,47.83
2023-02-22T21:23:26.603Z,47.80
2023-02-22T21:26:31.539Z,47.81
2023-02-22T21:29:37.926Z,47.82
2023-02-22T21:32:51.740Z,47.80
2023-02-22T21:36:16.538Z,47.83
2023-02-22T21:39:22.683Z,47.87
2023-02-22T21:42:30.993Z,47.91
2023-02-22T21:45:34.350Z,47.94
2023-02-22T21:48:41.631Z,48.01
2023-02-22T21:51:58.385Z,48.05
2023-02-22T21:55:03.426Z,48.03
2023-02-22T21:58:07.159Z,48.05
2023-02-22T22:01:17.386Z,48.10
2023-02-22T22:04:25.133Z,48.11
2023-02-22T22:07:36.424Z,48.11
2023-02-22T22:10:41.709Z,48.11
2023-02-22T22:13:49.414Z,48.12
2023-02-22T22:17:11.465Z,48.15
2023-02-22T22:20:25.841Z,48.16
2023-02-22T22:23:30.725Z,48.13
2023-02-22T22:34:05.512Z,48.18
2023-02-22T22:37:13.750Z,48.18
2023-02-22T22:40:24.950Z,48.17
2023-02-22T22:47:42.431Z,48.16
2023-02-22T22:51:23.095Z,48.21
2023-02-22T22:58:58.155Z,48.21
2023-02-22T23:02:04.566Z,48.23
2023-02-22T23:05:09.530Z,48.16
2023-02-22T23:08:15.138Z,48.21
2023-02-22T23:11:27.249Z,48.23
2023-02-22T23:14:32.658Z,48.24
2023-02-22T23:17:41.012Z,48.27
2023-02-22T23:20:43.025Z,48.19
2023-02-22T23:23:45.432Z,48.21
2023-02-22T23:26:50.928Z,48.24
2023-02-22T23:33:02.447Z,48.24
2023-02-22T23:36:05.891Z,48.20
2023-02-22T23:39:08.063Z,48.27
2023-02-22T23:42:16.798Z,48.20
2023-02-22T23:45:24.942Z,48.32
2023-02-22T23:48:30.124Z,48.27
2023-02-22T23:51:44.740Z,48.28
2023-02-22T23:54:52.219Z,48.21
2023-02-22T23:58:06.673Z,48.26
